Time;durP1;ratioP1;P1;durP2;ratioP2;P2;SDS_P1;SDS_P2;PMS_P1;PMS_P2;Temp;Humidity;BMP_temperature;BMP_pressure;BME280_temperature;BME280_humidity;BME280_pressure;Samples;Min_cycle;Max_cycle;Signal;HPM_P1;HPM_P2
2022/07/31 00:01:38;;;;;;;2.83;2.63;;;17.70;99.90;;;;;;5032462;28;20464;-71
2022/07/31 00:04:05;;;;;;;2.80;2.60;;;17.70;99.90;;;;;;5032009;28;20471;-72
2022/07/31 00:06:31;;;;;;;3.23;2.40;;;17.60;99.90;;;;;;5032519;28;21251;-72
2022/07/31 00:08:58;;;;;;;3.17;2.90;;;17.60;99.90;;;;;;5032281;28;20461;-71
2022/07/31 00:11:25;;;;;;;4.60;2.77;;;17.60;99.90;;;;;;5032636;28;20464;-73
2022/07/31 00:13:53;;;;;;;2.53;2.33;;;17.50;99.90;;;;;;5031483;28;20484;-71
2022/07/31 00:16:19;;;;;;;2.83;2.63;;;17.50;99.90;;;;;;5032507;28;20527;-71
2022/07/31 00:18:46;;;;;;;3.20;2.90;;;17.50;99.90;;;;;;5031713;28;20460;-71
2022/07/31 00:21:13;;;;;;;3.33;2.83;;;17.40;99.90;;;;;;5032159;28;20461;-71
2022/07/31 00:23:40;;;;;;;3.10;2.80;;;17.40;99.90;;;;;;5031360;28;20523;-71
2022/07/31 00:26:07;;;;;;;3.27;2.70;;;17.40;99.90;;;;;;5031689;28;21047;-70
2022/07/31 00:28:34;;;;;;;3.10;2.80;;;17.40;99.90;;;;;;5031548;28;20860;-71
2022/07/31 00:31:02;;;;;;;3.43;3.13;;;17.40;99.90;;;;;;5031579;28;20461;-71
2022/07/31 00:33:29;;;;;;;2.70;2.50;;;17.40;99.90;;;;;;5031242;28;20488;-71
2022/07/31 00:35:55;;;;;;;3.87;2.60;;;17.40;99.90;;;;;;5031154;28;21032;-72
2022/07/31 00:38:22;;;;;;;3.17;2.60;;;17.40;99.90;;;;;;5031509;28;20961;-71
2022/07/31 00:40:50;;;;;;;3.80;2.70;;;17.40;99.90;;;;;;5031369;28;20456;-71
2022/07/31 00:43:18;;;;;;;2.63;2.43;;;17.40;99.90;;;;;;5031451;28;20456;-69
2022/07/31 00:45:45;;;;;;;3.30;2.53;;;17.40;99.90;;;;;;5030839;28;20525;-70
2022/07/31 00:48:13;;;;;;;2.77;2.57;;;17.40;99.90;;;;;;5031299;28;20461;-71
2022/07/31 00:50:40;;;;;;;2.73;2.53;;;17.40;99.90;;;;;;5031311;28;20461;-72
2022/07/31 00:53:06;;;;;;;4.50;2.87;;;17.40;99.90;;;;;;5031026;28;20481;-72
2022/07/31 00:55:33;;;;;;;3.47;3.17;;;17.40;99.90;;;;;;5030756;28;21186;-71
2022/07/31 00:58:00;;;;;;;3.60;2.97;;;17.40;99.90;;;;;;5030818;28;20467;-71
2022/07/31 01:00:26;;;;;;;2.60;2.40;;;17.40;99.90;;;;;;5031336;28;20515;-72
2022/07/31 01:02:53;;;;;;;3.37;3.07;;;17.40;99.90;;;;;;5030668;28;20511;-72
2022/07/31 01:05:22;;;;;;;3.00;2.80;;;17.40;99.90;;;;;;5030583;28;20464;-71
2022/07/31 01:07:48;;;;;;;3.03;2.40;;;17.40;99.90;;;;;;5030206;28;20457;-72
2022/07/31 01:10:22;;;;;;;3.07;2.77;;;17.40;99.90;;;;;;5030861;28;20466;-72
2022/07/31 01:12:54;;;;;;;4.53;2.70;;;17.40;99.90;;;;;;5030674;28;20896;-71
2022/07/31 01:15:22;;;;;;;3.33;3.00;;;17.30;99.90;;;;;;5030227;28;20488;-71
2022/07/31 01:17:50;;;;;;;5.37;3.20;;;17.30;99.90;;;;;;5030709;28;20515;-71
2022/07/31 01:20:17;;;;;;;2.97;2.67;;;17.30;99.90;;;;;;5030697;28;20517;-70
2022/07/31 01:22:57;;;;;;;2.73;2.53;;;17.30;99.90;;;;;;5030770;28;20460;-71
2022/07/31 01:25:38;;;;;;;4.03;3.63;;;17.20;99.90;;;;;;5030516;28;20495;-71
2022/07/31 01:28:18;;;;;;;2.80;2.30;;;17.20;99.90;;;;;;5030772;28;20457;-72
2022/07/31 01:30:51;;;;;;;2.77;2.47;;;17.10;99.90;;;;;;5030833;28;20465;-72
2022/07/31 01:33:21;;;;;;;2.47;2.27;;;17.10;99.90;;;;;;5030563;28;21042;-70
2022/07/31 01:35:52;;;;;;;3.07;2.87;;;17.10;99.90;;;;;;5030392;28;20489;-71
2022/07/31 01:38:23;;;;;;;2.70;2.50;;;17.00;99.90;;;;;;5030895;28;20469;-71
2022/07/31 01:40:56;;;;;;;3.17;2.87;;;17.00;99.90;;;;;;5030678;28;21234;-71
2022/07/31 01:43:26;;;;;;;2.50;2.30;;;17.00;99.90;;;;;;5030478;28;20465;-72
2022/07/31 01:45:57;;;;;;;2.60;2.40;;;16.90;99.90;;;;;;5030546;28;20543;-72
2022/07/31 01:48:26;;;;;;;2.50;2.30;;;16.90;99.90;;;;;;5030577;28;20481;-72
2022/07/31 01:50:55;;;;;;;2.67;2.47;;;16.90;99.90;;;;;;5030362;28;21003;-72
2022/07/31 01:53:25;;;;;;;2.70;2.50;;;16.90;99.90;;;;;;5030183;28;20480;-71
2022/07/31 01:55:55;;;;;;;2.80;2.43;;;16.80;99.90;;;;;;5030362;28;20520;-69
2022/07/31 01:58:23;;;;;;;3.40;3.10;;;16.80;99.90;;;;;;5030224;28;20480;-69
2022/07/31 02:00:52;;;;;;;4.33;2.23;;;16.80;99.90;;;;;;5030237;28;20976;-69
2022/07/31 02:03:21;;;;;;;2.87;2.67;;;16.70;99.90;;;;;;5030147;28;20883;-69
2022/07/31 02:05:49;;;;;;;2.90;2.67;;;16.70;99.90;;;;;;5030086;28;20910;-69
2022/07/31 02:08:18;;;;;;;2.63;2.43;;;16.70;99.90;;;;;;5030387;28;20468;-70
2022/07/31 02:10:45;;;;;;;3.10;2.80;;;16.60;99.90;;;;;;5030305;28;20468;-69
2022/07/31 02:13:14;;;;;;;2.73;2.50;;;16.60;99.90;;;;;;5030254;28;20493;-68
2022/07/31 02:15:42;;;;;;;2.43;2.23;;;16.50;99.90;;;;;;5029852;28;20485;-70
2022/07/31 02:18:10;;;;;;;3.07;2.67;;;16.50;99.90;;;;;;5030364;28;20461;-70
2022/07/31 02:20:40;;;;;;;3.17;2.90;;;16.40;99.90;;;;;;5031885;28;20527;-69
2022/07/31 02:23:07;;;;;;;2.90;2.60;;;16.40;99.90;;;;;;5034445;28;20879;-70
2022/07/31 02:25:36;;;;;;;2.40;2.20;;;16.30;99.90;;;;;;5033752;28;20516;-69
2022/07/31 02:28:08;;;;;;;2.80;2.60;;;16.30;99.90;;;;;;5034127;28;20471;-70
2022/07/31 02:30:36;;;;;;;3.70;3.00;;;16.30;99.90;;;;;;5034452;28;20464;-70
2022/07/31 02:33:05;;;;;;;3.27;2.60;;;16.20;99.90;;;;;;5033787;28;20492;-70
2022/07/31 02:35:32;;;;;;;2.43;2.23;;;16.20;99.90;;;;;;5033699;28;20576;-70
2022/07/31 02:38:01;;;;;;;3.10;2.90;;;16.20;99.90;;;;;;5033895;28;20472;-70
2022/07/31 02:40:28;;;;;;;3.17;2.63;;;16.10;99.90;;;;;;5034153;28;20465;-70
2022/07/31 02:42:55;;;;;;;3.40;3.10;;;16.10;99.90;;;;;;5033713;28;20461;-69
2022/07/31 02:45:22;;;;;;;6.10;2.90;;;16.00;99.90;;;;;;5033546;28;20461;-70
2022/07/31 02:47:49;;;;;;;3.13;2.60;;;16.00;99.90;;;;;;5033664;28;20461;-68
2022/07/31 02:50:17;;;;;;;3.10;2.80;;;16.00;99.90;;;;;;5033966;28;20879;-70
2022/07/31 02:52:44;;;;;;;3.17;2.97;;;16.00;99.90;;;;;;5033993;28;20471;-70
2022/07/31 02:55:13;;;;;;;3.30;3.00;;;15.90;99.90;;;;;;5033092;28;20467;-70
2022/07/31 02:57:39;;;;;;;3.47;2.67;;;15.90;99.90;;;;;;5033896;28;20457;-70
2022/07/31 03:00:21;;;;;;;3.27;2.87;;;15.80;99.90;;;;;;5033427;28;20468;-68
2022/07/31 03:02:48;;;;;;;2.83;2.63;;;15.80;99.90;;;;;;5033634;28;20580;-69
2022/07/31 03:05:15;;;;;;;3.20;2.50;;;15.80;99.90;;;;;;5032830;28;20518;-70
2022/07/31 03:07:42;;;;;;;3.20;2.90;;;15.80;99.90;;;;;;5033594;28;20461;-70
2022/07/31 03:10:10;;;;;;;3.57;3.27;;;15.70;99.90;;;;;;5033338;28;20460;-69
2022/07/31 03:12:40;;;;;;;3.10;2.43;;;15.70;99.90;;;;;;5033614;28;20550;-70
2022/07/31 03:15:09;;;;;;;3.60;2.87;;;15.70;99.90;;;;;;5032666;28;20535;-70
2022/07/31 03:17:37;;;;;;;3.20;3.00;;;15.70;99.90;;;;;;5033528;28;20495;-70
2022/07/31 03:20:04;;;;;;;2.60;2.40;;;15.60;99.90;;;;;;5033220;28;20472;-70
2022/07/31 03:22:31;;;;;;;3.23;2.93;;;15.60;99.90;;;;;;5033158;28;20468;-70
2022/07/31 03:24:57;;;;;;;2.93;2.63;;;15.60;99.90;;;;;;5032584;28;20540;-70
2022/07/31 03:27:25;;;;;;;2.80;2.60;;;15.60;99.90;;;;;;5033169;28;20901;-70
2022/07/31 03:29:54;;;;;;;3.20;2.90;;;15.60;99.90;;;;;;5032977;28;20968;-70
2022/07/31 03:34:48;;;;;;;4.10;2.80;;;15.50;99.90;;;;;;5050053;28;20519;-69
2022/07/31 03:37:15;;;;;;;2.80;2.60;;;15.50;99.90;;;;;;5053055;28;20549;-69
2022/07/31 03:39:42;;;;;;;3.27;3.00;;;15.50;99.90;;;;;;5053173;28;20955;-69
2022/07/31 03:42:10;;;;;;;4.10;2.97;;;15.50;99.90;;;;;;5053334;28;20460;-68
2022/07/31 03:44:39;;;;;;;2.80;2.60;;;15.50;99.90;;;;;;5052600;28;20480;-69
2022/07/31 03:47:08;;;;;;;3.03;2.73;;;15.50;99.90;;;;;;5053229;28;20488;-68
2022/07/31 03:49:35;;;;;;;3.07;2.57;;;15.40;99.90;;;;;;5053329;28;20466;-69
2022/07/31 03:52:02;;;;;;;4.70;2.57;;;15.40;99.90;;;;;;5053877;28;20540;-67
2022/07/31 03:54:28;;;;;;;3.30;3.00;;;15.40;99.90;;;;;;5052612;28;20457;-68
2022/07/31 03:56:57;;;;;;;2.97;2.73;;;15.40;99.90;;;;;;5053542;28;20987;-68
2022/07/31 03:59:25;;;;;;;3.17;2.87;;;15.40;99.90;;;;;;5053276;28;20551;-68
2022/07/31 04:01:52;;;;;;;3.23;2.50;;;15.30;99.90;;;;;;5053248;28;20518;-68
2022/07/31 04:04:20;;;;;;;2.97;2.77;;;15.30;99.90;;;;;;5053005;28;20490;-69
2022/07/31 04:06:47;;;;;;;2.87;2.63;;;15.30;99.90;;;;;;5053299;28;20483;-69
2022/07/31 04:09:13;;;;;;;3.33;3.13;;;15.30;99.90;;;;;;5053626;28;20460;-68
2022/07/31 04:11:40;;;;;;;3.17;2.87;;;15.30;99.90;;;;;;5053752;28;20471;-68
2022/07/31 04:14:07;;;;;;;3.03;2.77;;;15.20;99.90;;;;;;5052824;28;20466;-68
2022/07/31 04:16:34;;;;;;;3.50;3.20;;;15.30;99.90;;;;;;5053387;28;20480;-68
2022/07/31 04:19:00;;;;;;;2.77;2.53;;;15.20;99.90;;;;;;5053176;28;20460;-68
2022/07/31 04:21:28;;;;;;;2.83;2.63;;;15.20;99.90;;;;;;5052632;28;20463;-69
2022/07/31 04:23:55;;;;;;;2.87;2.60;;;15.20;99.90;;;;;;5052179;28;20488;-68
2022/07/31 04:26:22;;;;;;;3.20;2.90;;;15.20;99.90;;;;;;5053127;28;20487;-68
2022/07/31 04:28:49;;;;;;;3.20;2.90;;;15.30;99.90;;;;;;5052712;28;20467;-68
2022/07/31 04:31:16;;;;;;;3.27;3.03;;;15.20;99.90;;;;;;5053419;28;20491;-67
2022/07/31 04:33:43;;;;;;;3.63;2.97;;;15.30;99.90;;;;;;5052097;28;20474;-67
2022/07/31 04:36:09;;;;;;;3.20;2.90;;;15.30;99.90;;;;;;5053032;28;20484;-68
2022/07/31 04:38:37;;;;;;;3.57;3.27;;;15.30;99.90;;;;;;5052820;28;20460;-68
2022/07/31 04:41:04;;;;;;;2.83;2.63;;;15.30;99.90;;;;;;5052368;28;20471;-69
2022/07/31 04:43:31;;;;;;;3.67;2.90;;;15.30;99.90;;;;;;5051345;28;20563;-67
2022/07/31 04:45:58;;;;;;;3.30;3.10;;;15.30;99.90;;;;;;5052344;28;20490;-69
2022/07/31 04:48:24;;;;;;;3.83;3.10;;;15.40;99.90;;;;;;5051852;28;20463;-69
2022/07/31 04:50:51;;;;;;;3.33;3.03;;;15.40;99.90;;;;;;5051413;28;20460;-68
2022/07/31 04:53:18;;;;;;;3.10;2.87;;;15.40;99.90;;;;;;5051619;28;20959;-67
2022/07/31 04:56:32;;;;;;;3.40;3.10;;;15.50;99.90;;;;;;5051273;28;20852;-68
2022/07/31 04:58:33;;;;;;;3.00;2.80;;;15.50;99.90;;;;;;5051450;28;20452;-70
2022/07/31 05:01:00;;;;;;;3.50;3.10;;;15.50;99.90;;;;;;5051594;28;20464;-69
2022/07/31 05:03:27;;;;;;;3.63;3.33;;;15.50;99.90;;;;;;5050906;28;20495;-70
2022/07/31 05:05:54;;;;;;;3.33;2.97;;;15.70;99.90;;;;;;5051261;28;20484;-69
2022/07/31 05:08:21;;;;;;;3.10;2.70;;;15.70;99.90;;;;;;5051580;28;20460;-69
2022/07/31 05:13:33;;;;;;;3.27;3.00;;;15.90;99.90;;;;;;5051070;28;20439;-67
2022/07/31 05:16:00;;;;;;;3.23;3.03;;;15.90;99.90;;;;;;5051540;28;20827;-69
2022/07/31 05:18:27;;;;;;;3.60;3.23;;;16.00;99.90;;;;;;5051355;28;20460;-69
2022/07/31 05:20:53;;;;;;;3.47;3.17;;;16.10;99.90;;;;;;5051277;28;20464;-69
2022/07/31 05:23:20;;;;;;;7.10;2.70;;;16.10;99.90;;;;;;5051062;28;20464;-68
2022/07/31 05:25:48;;;;;;;3.20;2.90;;;16.20;99.90;;;;;;5050804;28;20858;-69
2022/07/31 05:28:15;;;;;;;3.10;2.73;;;16.20;99.90;;;;;;5051399;28;20471;-69
2022/07/31 05:30:42;;;;;;;2.63;2.43;;;16.30;99.90;;;;;;5051104;28;20468;-69
2022/07/31 05:33:09;;;;;;;2.40;2.20;;;16.40;99.90;;;;;;5051169;28;20483;-68
2022/07/31 05:35:35;;;;;;;2.73;2.53;;;16.50;99.90;;;;;;5050582;28;20834;-68
2022/07/31 05:38:02;;;;;;;4.37;2.90;;;16.60;99.90;;;;;;5052392;28;20467;-69
2022/07/31 05:40:29;;;;;;;2.70;2.50;;;16.70;99.90;;;;;;5052343;28;20467;-69
2022/07/31 05:42:57;;;;;;;3.07;2.80;;;16.80;99.90;;;;;;5052217;28;20473;-67
2022/07/31 05:45:23;;;;;;;3.23;2.97;;;16.90;99.90;;;;;;5051401;28;20483;-67
2022/07/31 05:47:50;;;;;;;3.07;2.87;;;16.90;99.90;;;;;;5051795;28;20455;-69
2022/07/31 05:50:17;;;;;;;3.87;3.43;;;17.00;99.90;;;;;;5051858;28;20460;-70
2022/07/31 05:52:44;;;;;;;5.03;3.27;;;17.10;99.90;;;;;;5051006;28;20495;-68
2022/07/31 05:55:11;;;;;;;3.40;3.10;;;17.20;99.90;;;;;;5050397;28;20467;-69
2022/07/31 05:57:37;;;;;;;3.40;3.10;;;17.20;99.90;;;;;;5051891;28;20460;-69
2022/07/31 06:00:07;;;;;;;3.50;3.20;;;17.30;99.90;;;;;;5052266;28;20491;-69
2022/07/31 06:02:34;;;;;;;3.50;3.20;;;17.40;99.90;;;;;;5050980;28;20463;-69
2022/07/31 06:05:00;;;;;;;3.67;3.37;;;17.40;99.90;;;;;;5050685;28;20483;-70
2022/07/31 06:07:27;;;;;;;4.00;3.60;;;17.50;99.90;;;;;;5051816;28;20484;-68
2022/07/31 06:09:54;;;;;;;3.87;3.57;;;17.60;99.90;;;;;;5050644;28;20467;-69
2022/07/31 06:12:21;;;;;;;3.20;2.90;;;17.70;99.90;;;;;;5051580;28;20836;-70
2022/07/31 06:14:47;;;;;;;3.40;3.10;;;17.80;99.90;;;;;;5050524;28;20463;-68
2022/07/31 06:17:15;;;;;;;3.60;3.30;;;17.90;99.90;;;;;;5051179;28;20496;-69
2022/07/31 06:19:42;;;;;;;5.00;2.40;;;17.90;99.90;;;;;;5029259;28;20512;-68
2022/07/31 06:22:09;;;;;;;3.13;2.93;;;18.00;99.90;;;;;;5011363;28;20474;-69
2022/07/31 06:24:36;;;;;;;3.33;3.03;;;18.10;99.90;;;;;;5010648;28;20482;-69
2022/07/31 06:27:03;;;;;;;3.40;3.10;;;18.10;99.90;;;;;;5011505;28;20504;-69
2022/07/31 06:29:31;;;;;;;3.93;3.40;;;18.20;99.90;;;;;;5011586;28;20481;-68
2022/07/31 06:31:58;;;;;;;3.53;3.23;;;18.30;99.90;;;;;;5011234;28;20465;-69
2022/07/31 06:34:26;;;;;;;3.13;2.80;;;18.40;99.90;;;;;;5010715;28;20470;-69
2022/07/31 06:36:52;;;;;;;4.90;2.57;;;18.40;99.90;;;;;;5010671;28;20499;-69
2022/07/31 06:39:20;;;;;;;4.23;2.97;;;18.50;99.90;;;;;;5011156;28;20846;-68
2022/07/31 06:41:49;;;;;;;2.70;2.50;;;18.60;99.90;;;;;;5010862;28;20465;-69
2022/07/31 06:44:18;;;;;;;3.00;2.70;;;18.70;99.90;;;;;;5010195;28;20861;-68
2022/07/31 06:46:48;;;;;;;2.73;2.53;;;18.80;99.90;;;;;;5026708;28;20481;-69
2022/07/31 06:49:15;;;;;;;2.77;2.57;;;18.90;99.90;;;;;;5030444;28;20460;-69
2022/07/31 06:51:44;;;;;;;3.37;2.90;;;19.00;99.90;;;;;;5030593;28;20453;-69
2022/07/31 06:54:15;;;;;;;2.60;2.40;;;19.10;99.90;;;;;;5029770;28;20456;-70
2022/07/31 06:56:42;;;;;;;2.80;2.60;;;19.20;99.90;;;;;;5028841;28;20477;-68
2022/07/31 06:59:10;;;;;;;2.73;2.50;;;19.30;99.90;;;;;;5028739;28;20539;-70
2022/07/31 07:01:40;;;;;;;3.40;3.03;;;19.40;99.90;;;;;;5025723;28;20510;-69
2022/07/31 07:04:08;;;;;;;3.60;2.47;;;19.50;99.90;;;;;;5025509;28;20887;-71
2022/07/31 07:06:35;;;;;;;4.83;2.80;;;19.60;99.90;;;;;;5036649;28;20476;-70
2022/07/31 07:09:03;;;;;;;2.70;2.50;;;19.70;99.90;;;;;;5028929;28;20501;-69
2022/07/31 07:11:30;;;;;;;2.70;2.50;;;19.80;99.90;;;;;;5046815;28;20471;-67
2022/07/31 07:13:58;;;;;;;2.50;2.30;;;19.80;99.90;;;;;;5049390;28;20938;-72
2022/07/31 07:16:25;;;;;;;2.20;2.10;;;19.90;99.90;;;;;;5050260;28;20498;-71
2022/07/31 07:18:53;;;;;;;2.50;2.30;;;20.00;99.90;;;;;;5052991;28;20466;-71
2022/07/31 07:21:20;;;;;;;2.33;2.13;;;20.10;99.90;;;;;;5054041;28;20460;-71
2022/07/31 07:23:47;;;;;;;2.33;1.97;;;20.20;99.90;;;;;;5052530;28;20479;-71
2022/07/31 07:26:17;;;;;;;2.80;2.60;;;20.30;99.90;;;;;;5054093;28;20479;-72
2022/07/31 07:28:45;;;;;;;2.40;2.20;;;20.30;99.90;;;;;;5053838;28;20483;-71
2022/07/31 07:31:12;;;;;;;3.10;2.80;;;20.50;99.90;;;;;;5054515;28;20464;-71
2022/07/31 07:33:39;;;;;;;2.50;2.30;;;20.50;99.90;;;;;;5053573;28;20503;-71
2022/07/31 07:36:06;;;;;;;2.93;2.23;;;20.70;99.90;;;;;;5053651;28;20469;-70
2022/07/31 07:38:33;;;;;;;2.57;2.37;;;20.80;99.90;;;;;;5054366;28;20459;-72
2022/07/31 07:41:00;;;;;;;3.60;3.10;;;20.90;99.90;;;;;;5049189;28;20468;-71
2022/07/31 07:43:28;;;;;;;3.10;2.80;;;21.00;99.90;;;;;;5034369;28;20873;-71
2022/07/31 07:45:55;;;;;;;4.70;3.30;;;21.10;99.90;;;;;;5033694;28;20489;-70
2022/07/31 07:48:22;;;;;;;3.20;2.90;;;21.20;99.90;;;;;;5033382;28;20460;-71
2022/07/31 07:50:48;;;;;;;4.50;3.03;;;21.30;99.90;;;;;;5033459;28;20972;-71
2022/07/31 07:53:15;;;;;;;3.90;3.50;;;21.40;99.90;;;;;;5033327;28;20463;-71
2022/07/31 07:55:42;;;;;;;4.30;3.73;;;21.50;99.90;;;;;;5033503;28;21011;-71
2022/07/31 07:58:09;;;;;;;3.80;3.40;;;21.60;99.90;;;;;;5033553;28;20462;-71
2022/07/31 08:00:37;;;;;;;2.63;2.43;;;21.70;99.90;;;;;;5033483;28;20458;-71
2022/07/31 08:03:04;;;;;;;2.27;2.07;;;21.80;99.90;;;;;;5033493;28;20466;-71
2022/07/31 08:05:30;;;;;;;2.87;2.60;;;21.80;99.90;;;;;;5033230;28;20493;-71
2022/07/31 08:08:02;;;;;;;2.63;2.43;;;21.90;99.90;;;;;;5032940;28;20467;-71
2022/07/31 08:10:29;;;;;;;4.57;2.70;;;21.90;99.90;;;;;;5032655;28;20476;-73
2022/07/31 08:12:57;;;;;;;3.00;2.80;;;22.00;99.90;;;;;;5031677;28;20462;-70
2022/07/31 08:15:24;;;;;;;2.70;2.50;;;22.00;99.90;;;;;;5031752;28;20543;-70
2022/07/31 08:17:53;;;;;;;2.83;2.33;;;22.10;99.90;;;;;;5027915;28;20462;-70
2022/07/31 08:20:20;;;;;;;3.53;3.00;;;22.20;99.90;;;;;;5032279;28;20832;-71
2022/07/31 08:22:47;;;;;;;2.70;2.50;;;22.30;99.90;;;;;;5032020;28;20842;-72
2022/07/31 08:25:14;;;;;;;3.47;2.37;;;22.30;99.90;;;;;;5030887;28;20484;-72
2022/07/31 08:27:41;;;;;;;4.93;2.47;;;22.40;99.90;;;;;;5032208;28;20466;-70
2022/07/31 08:30:09;;;;;;;2.90;2.60;;;22.40;99.90;;;;;;5029840;28;20473;-71
2022/07/31 08:32:37;;;;;;;2.60;2.40;;;22.50;99.90;;;;;;5031414;28;20933;-71
2022/07/31 08:35:06;;;;;;;2.13;2.03;;;22.50;99.90;;;;;;5031398;28;20467;-70
2022/07/31 08:37:33;;;;;;;2.40;2.20;;;22.60;99.90;;;;;;5031414;28;20464;-71
2022/07/31 08:40:00;;;;;;;2.83;2.60;;;22.70;99.90;;;;;;5029478;28;20203;-71
2022/07/31 08:42:26;;;;;;;3.47;3.00;;;22.70;99.90;;;;;;5031644;28;20624;-71
2022/07/31 08:44:53;;;;;;;3.20;3.00;;;22.80;99.90;;;;;;5030347;28;20534;-71
2022/07/31 08:47:23;;;;;;;2.70;2.50;;;22.90;99.90;;;;;;5029598;28;20478;-71
2022/07/31 08:49:51;;;;;;;2.63;2.20;;;23.00;99.90;;;;;;5031651;28;20470;-71
2022/07/31 08:52:22;;;;;;;2.07;1.87;;;23.20;99.90;;;;;;5032373;28;20458;-70
2022/07/31 08:54:50;;;;;;;2.03;1.93;;;23.30;99.90;;;;;;5031705;28;20492;-70
2022/07/31 08:57:17;;;;;;;3.40;2.87;;;23.40;99.90;;;;;;5032380;28;20515;-71
2022/07/31 08:59:44;;;;;;;2.33;2.13;;;23.60;99.90;;;;;;5032871;28;20459;-71
2022/07/31 09:02:14;;;;;;;2.97;2.50;;;23.80;99.90;;;;;;5029141;28;20463;-72
2022/07/31 09:04:42;;;;;;;2.53;2.33;;;23.90;99.90;;;;;;5030418;28;20492;-69
2022/07/31 09:07:13;;;;;;;2.20;2.00;;;24.00;99.90;;;;;;5031320;28;20518;-70
2022/07/31 09:09:44;;;;;;;2.47;2.13;;;24.10;99.90;;;;;;5030821;28;20467;-67
2022/07/31 09:12:11;;;;;;;1.60;1.50;;;24.20;99.90;;;;;;5032792;28;20489;-69
2022/07/31 09:14:38;;;;;;;2.20;2.00;;;24.40;99.90;;;;;;5050054;28;20979;-70
2022/07/31 09:17:08;;;;;;;3.23;1.87;;;24.50;98.90;;;;;;5050839;28;20482;-70
2022/07/31 09:19:39;;;;;;;1.40;1.30;;;24.60;98.00;;;;;;5050762;28;20466;-70
2022/07/31 09:22:06;;;;;;;2.70;1.77;;;24.70;99.90;;;;;;5029796;28;20457;-68
2022/07/31 09:24:34;;;;;;;1.50;1.40;;;24.80;99.90;;;;;;5030089;28;20952;-68
2022/07/31 09:27:05;;;;;;;2.03;1.60;;;24.90;99.90;;;;;;5030604;28;20487;-68
2022/07/31 09:29:40;;;;;;;2.23;2.03;;;25.10;99.90;;;;;;5030117;28;20464;-70
2022/07/31 09:32:11;;;;;;;1.80;1.67;;;25.20;99.90;;;;;;5025639;28;20629;-70
2022/07/31 09:34:39;;;;;;;3.90;1.80;;;25.40;99.90;;;;;;5030424;28;20463;-70
2022/07/31 09:37:10;;;;;;;2.23;2.03;;;25.50;99.90;;;;;;5030733;28;20568;-70
2022/07/31 09:39:37;;;;;;;2.27;1.90;;;25.60;98.90;;;;;;5030948;28;20474;-69
2022/07/31 09:42:12;;;;;;;3.00;2.10;;;25.80;99.20;;;;;;5031744;28;20511;-68
2022/07/31 09:44:41;;;;;;;2.80;1.90;;;25.80;99.60;;;;;;5030583;28;20469;-69
2022/07/31 09:47:21;;;;;;;1.70;1.37;;;25.90;98.80;;;;;;5030914;28;20523;-68
2022/07/31 09:49:54;;;;;;;2.00;1.80;;;25.80;96.20;;;;;;5030685;28;20479;-69
2022/07/31 09:52:22;;;;;;;2.50;2.07;;;25.80;97.20;;;;;;5030934;28;20461;-67
2022/07/31 09:54:49;;;;;;;3.10;1.93;;;25.80;99.40;;;;;;5030190;28;20719;-69
2022/07/31 09:57:18;;;;;;;2.10;2.00;;;25.90;98.60;;;;;;5031038;28;21065;-70
2022/07/31 09:59:44;;;;;;;1.80;1.70;;;25.90;98.30;;;;;;5029641;28;20461;-69
2022/07/31 10:02:15;;;;;;;1.80;1.70;;;25.80;98.10;;;;;;5030011;28;20465;-68
2022/07/31 10:04:43;;;;;;;2.30;1.83;;;26.00;97.90;;;;;;5029552;28;20898;-69
2022/07/31 10:07:12;;;;;;;1.70;1.60;;;26.10;98.50;;;;;;5029981;28;20519;-69
2022/07/31 10:09:40;;;;;;;1.80;1.67;;;26.20;96.30;;;;;;5030731;28;20559;-69
2022/07/31 10:12:12;;;;;;;1.50;1.40;;;26.40;97.10;;;;;;5030514;28;20500;-69
2022/07/31 10:14:43;;;;;;;2.40;1.93;;;26.50;98.30;;;;;;5028998;28;20495;-69
2022/07/31 10:17:11;;;;;;;2.00;1.90;;;26.70;96.50;;;;;;5030130;28;21020;-67
2022/07/31 10:19:41;;;;;;;1.80;1.70;;;26.90;98.30;;;;;;5029884;28;20522;-68
2022/07/31 10:22:12;;;;;;;7.67;1.80;;;26.90;96.90;;;;;;5029871;28;20472;-68
2022/07/31 10:24:44;;;;;;;2.17;1.70;;;26.80;95.80;;;;;;5029265;28;20472;-67
2022/07/31 10:27:12;;;;;;;2.10;1.90;;;26.60;96.30;;;;;;5029684;28;20477;-69
2022/07/31 10:29:40;;;;;;;2.27;1.80;;;26.50;97.00;;;;;;5109922;22;20484;-70
2022/07/31 10:32:08;;;;;;;1.70;1.50;;;26.30;96.60;;;;;;5049945;28;20513;-68
2022/07/31 10:34:35;;;;;;;2.13;2.03;;;26.20;96.60;;;;;;5049418;28;20460;-69
2022/07/31 10:37:07;;;;;;;1.67;1.57;;;26.20;97.00;;;;;;5047650;28;20494;-69
2022/07/31 10:39:41;;;;;;;2.23;2.00;;;26.00;96.80;;;;;;5045461;28;20455;-69
2022/07/31 10:42:16;;;;;;;1.83;1.73;;;26.00;97.70;;;;;;5049967;28;20459;-68
2022/07/31 10:44:50;;;;;;;2.33;2.13;;;25.90;97.80;;;;;;5052291;28;20970;-70
2022/07/31 10:47:18;;;;;;;2.30;1.70;;;25.90;98.10;;;;;;5054008;28;20481;-69
2022/07/31 10:49:47;;;;;;;1.90;1.80;;;25.90;97.70;;;;;;5054299;28;20460;-70
2022/07/31 10:52:25;;;;;;;1.90;1.80;;;26.00;95.20;;;;;;5066927;28;20482;-67
2022/07/31 10:54:53;;;;;;;1.90;1.80;;;26.20;96.90;;;;;;5073551;28;20458;-70
2022/07/31 10:57:24;;;;;;;1.93;1.83;;;26.20;97.90;;;;;;5073586;28;20483;-70
2022/07/31 10:59:52;;;;;;;2.57;1.97;;;26.20;98.20;;;;;;5072708;28;20455;-69
2022/07/31 11:02:29;;;;;;;1.50;1.40;;;26.10;97.30;;;;;;5070093;28;20925;-70
2022/07/31 11:05:07;;;;;;;1.80;1.70;;;26.10;95.10;;;;;;5072776;28;20458;-69
2022/07/31 11:07:34;;;;;;;2.17;1.60;;;26.00;97.00;;;;;;5072513;28;20462;-69
2022/07/31 11:10:09;;;;;;;1.70;1.60;;;26.00;96.40;;;;;;5072674;28;20463;-71
2022/07/31 11:12:36;;;;;;;2.30;1.87;;;25.90;96.70;;;;;;5069568;28;20488;-68
2022/07/31 11:15:16;;;;;;;1.97;1.80;;;25.70;96.90;;;;;;5071078;28;20829;-69
2022/07/31 11:17:43;;;;;;;2.03;1.87;;;25.60;96.60;;;;;;5072491;28;20459;-69
2022/07/31 11:20:18;;;;;;;1.77;1.67;;;25.60;96.30;;;;;;5072160;28;20459;-69
2022/07/31 11:22:53;;;;;;;2.47;1.90;;;25.50;96.50;;;;;;5072737;28;20883;-69
2022/07/31 11:25:20;;;;;;;1.80;1.70;;;25.50;97.40;;;;;;5066110;28;20473;-71
2022/07/31 11:27:46;;;;;;;1.60;1.30;;;25.60;97.80;;;;;;5070315;28;20459;-67
2022/07/31 11:30:15;;;;;;;2.03;1.87;;;25.60;98.70;;;;;;5071412;28;20953;-68
2022/07/31 11:32:48;;;;;;;4.40;2.03;;;25.70;97.40;;;;;;5053896;28;20464;-68
2022/07/31 11:35:25;;;;;;;2.10;1.80;;;26.00;98.60;;;;;;5051323;28;20464;-69
2022/07/31 11:37:52;;;;;;;2.40;2.20;;;26.30;99.20;;;;;;5051255;28;20466;-69
2022/07/31 11:40:19;;;;;;;2.40;1.80;;;26.70;98.50;;;;;;5050650;28;20490;-69
2022/07/31 11:42:46;;;;;;;2.37;2.17;;;27.10;96.40;;;;;;5051870;28;20510;-69
2022/07/31 11:45:15;;;;;;;1.63;1.53;;;27.30;96.30;;;;;;5050344;28;20468;-69
2022/07/31 11:47:43;;;;;;;1.97;1.87;;;27.30;96.50;;;;;;5050898;28;21047;-69
2022/07/31 11:50:11;;;;;;;1.80;1.70;;;27.20;96.40;;;;;;5050831;28;20963;-69
2022/07/31 11:52:42;;;;;;;2.10;1.90;;;27.20;97.10;;;;;;5050872;28;20882;-68
2022/07/31 11:55:10;;;;;;;2.00;1.90;;;27.10;97.50;;;;;;5050519;28;20464;-68
2022/07/31 12:00:10;;;;;;;1.90;1.80;;;27.00;97.00;;;;;;5010050;28;20469;-67
2022/07/31 12:02:42;;;;;;;2.17;1.97;;;26.80;95.20;;;;;;5011433;28;20499;-68
2022/07/31 12:05:11;;;;;;;1.90;1.80;;;26.70;95.50;;;;;;5010616;28;20468;-70
2022/07/31 12:07:39;;;;;;;1.83;1.73;;;26.50;95.30;;;;;;5011637;28;20517;-69
2022/07/31 12:10:08;;;;;;;1.83;1.73;;;26.50;96.80;;;;;;5011114;28;20992;-71
2022/07/31 12:12:35;;;;;;;2.37;1.80;;;26.40;96.70;;;;;;5025903;28;20465;-71
2022/07/31 12:15:13;;;;;;;1.97;1.87;;;26.50;97.80;;;;;;5029856;28;20466;-71
2022/07/31 12:17:41;;;;;;;1.77;1.67;;;26.80;98.00;;;;;;5028843;28;20474;-71
2022/07/31 12:20:09;;;;;;;2.13;1.57;;;27.20;94.80;;;;;;5028409;28;20491;-69
2022/07/31 12:22:36;;;;;;;2.23;1.90;;;27.40;96.30;;;;;;5028953;28;20559;-71
2022/07/31 12:25:05;;;;;;;2.60;1.83;;;27.50;95.80;;;;;;5029493;28;20544;-71
2022/07/31 12:27:32;;;;;;;2.90;2.07;;;27.60;93.30;;;;;;5029934;28;20563;-69
2022/07/31 12:29:59;;;;;;;2.50;1.80;;;27.60;94.60;;;;;;5029420;28;20543;-69
2022/07/31 12:32:26;;;;;;;2.37;1.90;;;27.50;92.70;;;;;;5029226;28;20476;-71
2022/07/31 12:35:03;;;;;;;3.63;1.80;;;27.30;95.10;;;;;;5029629;28;20961;-69
2022/07/31 12:37:30;;;;;;;1.70;1.60;;;27.20;95.50;;;;;;5030130;28;20480;-69
2022/07/31 12:39:57;;;;;;;2.17;1.93;;;27.10;95.80;;;;;;5029967;28;20536;-70
2022/07/31 12:42:25;;;;;;;3.47;1.93;;;27.30;96.30;;;;;;5027877;28;20564;-70
2022/07/31 12:44:54;;;;;;;4.00;1.50;;;27.30;94.80;;;;;;5028971;28;20477;-70
2022/07/31 12:47:21;;;;;;;2.30;2.10;;;27.40;94.20;;;;;;5029081;28;20592;-71
2022/07/31 12:49:48;;;;;;;2.53;1.90;;;27.30;94.20;;;;;;5030097;28;20464;-69
2022/07/31 12:52:16;;;;;;;2.27;1.90;;;27.30;95.20;;;;;;5028796;28;20584;-70
2022/07/31 12:54:43;;;;;;;1.67;1.57;;;27.40;94.30;;;;;;5028709;28;20806;-70
2022/07/31 12:57:09;;;;;;;3.00;1.70;;;27.50;94.60;;;;;;5028685;28;20853;-69
2022/07/31 12:59:36;;;;;;;2.27;1.90;;;27.40;94.50;;;;;;5029507;28;20568;-71
2022/07/31 13:02:03;;;;;;;2.17;1.73;;;27.30;94.30;;;;;;5028853;28;20468;-69